sensor_id;sensor_type;location;lat;lon;timestamp;pressure;altitude;pressure_sealevel;temperature;humidity
76609;BME280;65928;53.936;27.540;2023-02-28T00:01:19;100533.91;;;-3.88;70.81
76609;BME280;65928;53.936;27.540;2023-02-28T00:03:45;100406.50;;;-4.20;71.53
76609;BME280;65928;53.936;27.540;2023-02-28T00:06:10;100101.34;;;-5.67;69.84
76609;BME280;65928;53.936;27.540;2023-02-28T00:08:37;100530.56;;;-3.26;69.42
76609;BME280;65928;53.936;27.540;2023-02-28T00:11:04;100509.19;;;-3.21;69.74
76609;BME280;65928;53.936;27.540;2023-02-28T00:13:30;100588.31;;;-3.24;69.34
76609;BME280;65928;53.936;27.540;2023-02-28T00:16:05;100005.13;;;-6.02;68.63
76609;BME280;65928;53.936;27.540;2023-02-28T00:18:31;99944.31;;;-6.00;68.37
76609;BME280;65928;53.936;27.540;2023-02-28T00:20:57;100581.69;;;-2.85;68.35
76609;BME280;65928;53.936;27.540;2023-02-28T00:23:23;100504.16;;;-2.49;67.43
76609;BME280;65928;53.936;27.540;2023-02-28T00:25:48;100007.34;;;-5.56;67.51
76609;BME280;65928;53.936;27.540;2023-02-28T00:28:14;100010.63;;;-5.91;68.59
76609;BME280;65928;53.936;27.540;2023-02-28T00:30:39;100499.88;;;-3.14;69.66
76609;BME280;65928;53.936;27.540;2023-02-28T00:33:05;100095.25;;;-5.13;67.70
76609;BME280;65928;53.936;27.540;2023-02-28T00:35:30;100492.75;;;-2.92;68.08
76609;BME280;65928;53.936;27.540;2023-02-28T00:37:56;100510.81;;;-2.60;68.06
76609;BME280;65928;53.936;27.540;2023-02-28T00:40:21;100484.72;;;-3.01;68.35
76609;BME280;65928;53.936;27.540;2023-02-28T00:42:47;100008.41;;;-6.35;69.91
76609;BME280;65928;53.936;27.540;2023-02-28T00:45:12;100565.41;;;-3.72;70.44
76609;BME280;65928;53.936;27.540;2023-02-28T00:47:38;100498.69;;;-3.27;69.39
76609;BME280;65928;53.936;27.540;2023-02-28T00:50:04;100534.78;;;-3.59;71.17
76609;BME280;65928;53.936;27.540;2023-02-28T00:52:30;99987.72;;;-6.65;70.27
76609;BME280;65928;53.936;27.540;2023-02-28T00:54:55;100335.59;;;-4.89;70.82
76609;BME280;65928;53.936;27.540;2023-02-28T00:57:21;99947.59;;;-7.39;71.87
76609;BME280;65928;53.936;27.540;2023-02-28T00:59:47;100022.63;;;-6.97;72.57
76609;BME280;65928;53.936;27.540;2023-02-28T01:02:12;100064.81;;;-6.65;72.17
76609;BME280;65928;53.936;27.540;2023-02-28T01:04:38;100511.50;;;-3.89;71.46
76609;BME280;65928;53.936;27.540;2023-02-28T01:07:03;99983.38;;;-6.93;71.00
76609;BME280;65928;53.936;27.540;2023-02-28T01:09:29;100072.81;;;-6.81;71.58
76609;BME280;65928;53.936;27.540;2023-02-28T01:11:54;99983.59;;;-7.12;71.51
76609;BME280;65928;53.936;27.540;2023-02-28T01:14:20;99982.97;;;-7.05;71.81
76609;BME280;65928;53.936;27.540;2023-02-28T01:16:45;100484.75;;;-4.47;72.14
76609;BME280;65928;53.936;27.540;2023-02-28T01:19:11;100034.25;;;-7.08;72.66
76609;BME280;65928;53.936;27.540;2023-02-28T01:21:37;100449.75;;;-4.66;73.06
76609;BME280;65928;53.936;27.540;2023-02-28T01:24:03;99965.56;;;-7.39;72.11
76609;BME280;65928;53.936;27.540;2023-02-28T01:26:29;100475.25;;;-4.22;72.25
76609;BME280;65928;53.936;27.540;2023-02-28T01:28:55;100564.06;;;-3.87;71.18
76609;BME280;65928;53.936;27.540;2023-02-28T01:31:22;100444.88;;;-4.30;71.12
76609;BME280;65928;53.936;27.540;2023-02-28T01:33:47;100494.47;;;-4.12;71.34
76609;BME280;65928;53.936;27.540;2023-02-28T01:36:19;100103.16;;;-6.46;71.06
76609;BME280;65928;53.936;27.540;2023-02-28T01:38:45;100329.53;;;-5.17;70.72
76609;BME280;65928;53.936;27.540;2023-02-28T01:41:22;100507.66;;;-4.30;71.47
76609;BME280;65928;53.936;27.540;2023-02-28T01:46:14;100481.31;;;-4.46;72.12
76609;BME280;65928;53.936;27.540;2023-02-28T01:48:43;100435.63;;;-4.77;71.46
76609;BME280;65928;53.936;27.540;2023-02-28T01:51:15;100014.66;;;-7.04;71.30
76609;BME280;65928;53.936;27.540;2023-02-28T01:53:46;100487.34;;;-4.73;72.90
76609;BME280;65928;53.936;27.540;2023-02-28T01:56:17;99927.75;;;-7.68;72.01
76609;BME280;65928;53.936;27.540;2023-02-28T01:58:48;100506.47;;;-4.66;72.51
76609;BME280;65928;53.936;27.540;2023-02-28T02:01:15;100388.53;;;-5.25;72.68
76609;BME280;65928;53.936;27.540;2023-02-28T02:03:51;100075.84;;;-7.40;73.21
76609;BME280;65928;53.936;27.540;2023-02-28T02:06:25;100432.88;;;-5.33;74.39
76609;BME280;65928;53.936;27.540;2023-02-28T02:08:53;100059.03;;;-7.56;74.55
76609;BME280;65928;53.936;27.540;2023-02-28T02:11:19;99914.72;;;-8.43;74.36
76609;BME280;65928;53.936;27.540;2023-02-28T02:22:37;100091.84;;;-7.47;74.10
76609;BME280;65928;53.936;27.540;2023-02-28T02:38:35;100526.53;;;-5.31;76.38
76609;BME280;65928;53.936;27.540;2023-02-28T02:43:56;100471.31;;;-5.63;76.68
76609;BME280;65928;53.936;27.540;2023-02-28T02:46:31;100511.69;;;-5.38;76.44
76609;BME280;65928;53.936;27.540;2023-02-28T02:49:00;100493.88;;;-5.56;76.43
76609;BME280;65928;53.936;27.540;2023-02-28T02:51:27;100608.19;;;-5.29;75.69
76609;BME280;65928;53.936;27.540;2023-02-28T02:54:07;100310.22;;;-6.54;76.39
76609;BME280;65928;53.936;27.540;2023-02-28T02:56:35;100502.09;;;-5.42;76.34
76609;BME280;65928;53.936;27.540;2023-02-28T02:59:03;100501.72;;;-5.53;77.08
76609;BME280;65928;53.936;27.540;2023-02-28T03:01:32;100496.16;;;-5.40;76.51
76609;BME280;65928;53.936;27.540;2023-02-28T03:04:01;100239.81;;;-6.81;75.67
76609;BME280;65928;53.936;27.540;2023-02-28T03:06:28;100481.81;;;-5.57;76.37
76609;BME280;65928;53.936;27.540;2023-02-28T03:08:54;100566.72;;;-5.36;76.26
76609;BME280;65928;53.936;27.540;2023-02-28T03:11:20;100591.91;;;-5.28;75.84
76609;BME280;65928;53.936;27.540;2023-02-28T03:28:05;100486.97;;;-5.57;75.76
76609;BME280;65928;53.936;27.540;2023-02-28T03:30:45;100399.38;;;-6.07;76.26
76609;BME280;65928;53.936;27.540;2023-02-28T03:33:16;100484.56;;;-5.29;75.42
76609;BME280;65928;53.936;27.540;2023-02-28T03:35:55;100475.28;;;-5.71;75.99
76609;BME280;65928;53.936;27.540;2023-02-28T03:38:35;99938.59;;;-8.66;75.01
76609;BME280;65928;53.936;27.540;2023-02-28T03:41:12;99959.16;;;-8.43;74.70
76609;BME280;65928;53.936;27.540;2023-02-28T03:43:43;100499.88;;;-5.56;75.34
76609;BME280;65928;53.936;27.540;2023-02-28T03:46:13;100480.25;;;-5.77;75.15
76609;BME280;65928;53.936;27.540;2023-02-28T03:48:44;99948.69;;;-8.49;74.79
76609;BME280;65928;53.936;27.540;2023-02-28T03:51:15;99934.41;;;-8.86;75.56
76609;BME280;65928;53.936;27.540;2023-02-28T03:53:46;100423.59;;;-6.24;74.54
76609;BME280;65928;53.936;27.540;2023-02-28T03:56:18;100403.44;;;-5.90;74.76
76609;BME280;65928;53.936;27.540;2023-02-28T03:58:53;99920.81;;;-8.84;74.91
76609;BME280;65928;53.936;27.540;2023-02-28T04:01:28;100463.69;;;-5.60;75.14
76609;BME280;65928;53.936;27.540;2023-02-28T04:03:55;100430.28;;;-5.84;75.48
76609;BME280;65928;53.936;27.540;2023-02-28T04:06:22;100369.38;;;-6.30;75.36
76609;BME280;65928;53.936;27.540;2023-02-28T04:08:48;99905.13;;;-9.34;76.57
76609;BME280;65928;53.936;27.540;2023-02-28T04:14:21;99897.53;;;-9.12;76.48
76609;BME280;65928;53.936;27.540;2023-02-28T04:16:47;100328.28;;;-6.29;75.20
76609;BME280;65928;53.936;27.540;2023-02-28T04:19:13;100467.84;;;-5.89;76.38
76609;BME280;65928;53.936;27.540;2023-02-28T04:21:43;100471.97;;;-5.69;76.50
76609;BME280;65928;53.936;27.540;2023-02-28T04:24:11;100446.97;;;-5.71;75.47
76609;BME280;65928;53.936;27.540;2023-02-28T04:26:41;100065.13;;;-7.98;75.16
76609;BME280;65928;53.936;27.540;2023-02-28T04:29:09;100536.56;;;-5.85;76.28
76609;BME280;65928;53.936;27.540;2023-02-28T04:31:35;100463.88;;;-5.79;76.15
76609;BME280;65928;53.936;27.540;2023-02-28T04:34:01;99886.50;;;-9.32;76.68
76609;BME280;65928;53.936;27.540;2023-02-28T04:36:27;100300.50;;;-6.85;76.48
76609;BME280;65928;53.936;27.540;2023-02-28T04:38:53;99926.59;;;-8.89;76.27
76609;BME280;65928;53.936;27.540;2023-02-28T04:41:18;99917.91;;;-8.93;75.74
76609;BME280;65928;53.936;27.540;2023-02-28T04:43:44;100464.66;;;-5.80;76.20
76609;BME280;65928;53.936;27.540;2023-02-28T04:46:10;100494.88;;;-5.98;75.95
76609;BME280;65928;53.936;27.540;2023-02-28T04:48:37;99926.63;;;-9.10;76.33
76609;BME280;65928;53.936;27.540;2023-02-28T04:51:10;100434.47;;;-5.86;75.70
76609;BME280;65928;53.936;27.540;2023-02-28T04:53:37;100523.63;;;-5.64;75.06
76609;BME280;65928;53.936;27.540;2023-02-28T04:56:05;99957.16;;;-8.72;75.34
76609;BME280;65928;53.936;27.540;2023-02-28T04:58:31;100360.94;;;-6.26;75.00
76609;BME280;65928;53.936;27.540;2023-02-28T05:01:14;99923.88;;;-8.94;75.21
76609;BME280;65928;53.936;27.540;2023-02-28T05:03:42;100000.94;;;-8.22;74.63
76609;BME280;65928;53.936;27.540;2023-02-28T05:06:08;99929.03;;;-8.92;74.52
76609;BME280;65928;53.936;27.540;2023-02-28T05:08:34;100033.53;;;-7.97;74.37
76609;BME280;65928;53.936;27.540;2023-02-28T05:11:00;100012.44;;;-8.12;73.40
76609;BME280;65928;53.936;27.540;2023-02-28T05:13:27;100469.06;;;-5.78;74.49
76609;BME280;65928;53.936;27.540;2023-02-28T05:15:52;100442.91;;;-5.90;74.74
76609;BME280;65928;53.936;27.540;2023-02-28T05:18:18;100534.53;;;-5.24;72.82
76609;BME280;65928;53.936;27.540;2023-02-28T05:20:43;100375.69;;;-5.99;72.74
76609;BME280;65928;53.936;27.540;2023-02-28T05:23:12;100524.28;;;-5.70;73.24
76609;BME280;65928;53.936;27.540;2023-02-28T05:25:38;100514.25;;;-5.62;72.69
76609;BME280;65928;53.936;27.540;2023-02-28T05:28:04;100407.78;;;-5.89;72.38
76609;BME280;65928;53.936;27.540;2023-02-28T05:30:29;99916.84;;;-8.77;71.41
76609;BME280;65928;53.936;27.540;2023-02-28T05:32:57;100565.47;;;-5.92;72.89
76609;BME280;65928;53.936;27.540;2023-02-28T05:35:22;100454.09;;;-6.11;74.17
76609;BME280;65928;53.936;27.540;2023-02-28T05:37:48;100459.28;;;-5.88;73.51
76609;BME280;65928;53.936;27.540;2023-02-28T05:40:14;99516.53;;;-10.86;71.93
76609;BME280;65928;53.936;27.540;2023-02-28T05:42:40;100340.56;;;-6.22;71.79
76609;BME280;65928;53.936;27.540;2023-02-28T05:45:07;100480.16;;;-5.79;72.13
76609;BME280;65928;53.936;27.540;2023-02-28T05:47:33;99904.47;;;-8.67;72.35
76609;BME280;65928;53.936;27.540;2023-02-28T05:49:59;100452.88;;;-5.75;73.43
76609;BME280;65928;53.936;27.540;2023-02-28T05:52:25;100002.31;;;-8.31;73.38
76609;BME280;65928;53.936;27.540;2023-02-28T05:54:51;99867.34;;;-8.54;71.89
76609;BME280;65928;53.936;27.540;2023-02-28T05:57:16;99814.53;;;-8.96;71.64
76609;BME280;65928;53.936;27.540;2023-02-28T05:59:42;100379.16;;;-5.73;72.09
76609;BME280;65928;53.936;27.540;2023-02-28T06:02:15;100401.47;;;-5.72;73.19
76609;BME280;65928;53.936;27.540;2023-02-28T06:04:41;100104.31;;;-7.34;72.74
76609;BME280;65928;53.936;27.540;2023-02-28T06:07:07;99906.72;;;-8.52;72.81
76609;BME280;65928;53.936;27.540;2023-02-28T06:09:33;100333.66;;;-5.99;73.01
76609;BME280;65928;53.936;27.540;2023-02-28T06:11:59;100504.34;;;-5.28;72.37
76609;BME280;65928;53.936;27.540;2023-02-28T06:14:25;100428.09;;;-5.48;72.55
76609;BME280;65928;53.936;27.540;2023-02-28T06:16:51;99909.19;;;-8.55;73.15
76609;BME280;65928;53.936;27.540;2023-02-28T06:19:17;100467.69;;;-5.68;73.16
76609;BME280;65928;53.936;27.540;2023-02-28T06:21:42;99838.31;;;-8.55;72.96
76609;BME280;65928;53.936;27.540;2023-02-28T06:24:08;100411.56;;;-5.04;72.22
76609;BME280;65928;53.936;27.540;2023-02-28T06:26:34;99944.38;;;-7.33;71.29
76609;BME280;65928;53.936;27.540;2023-02-28T06:28:59;100409.53;;;-5.13;72.02
76609;BME280;65928;53.936;27.540;2023-02-28T06:31:26;100412.53;;;-5.26;72.57
76609;BME280;65928;53.936;27.540;2023-02-28T06:33:52;100306.81;;;-5.56;72.55
76609;BME280;65928;53.936;27.540;2023-02-28T06:36:18;100216.13;;;-6.00;71.92
76609;BME280;65928;53.936;27.540;2023-02-28T06:38:44;99974.03;;;-7.41;70.98
76609;BME280;65928;53.936;27.540;2023-02-28T06:41:10;100463.09;;;-4.78;71.66
76609;BME280;65928;53.936;27.540;2023-02-28T06:43:39;100412.56;;;-4.46;70.99
76609;BME280;65928;53.936;27.540;2023-02-28T06:46:07;99853.66;;;-7.59;70.25
76609;BME280;65928;53.936;27.540;2023-02-28T06:48:33;100406.59;;;-4.45;71.13
76609;BME280;65928;53.936;27.540;2023-02-28T06:51:13;99881.47;;;-7.20;70.02
76609;BME280;65928;53.936;27.540;2023-02-28T06:53:40;99976.56;;;-6.66;69.63
76609;BME280;65928;53.936;27.540;2023-02-28T06:56:07;100171.31;;;-5.25;69.63
76609;BME280;65928;53.936;27.540;2023-02-28T06:58:34;99946.22;;;-6.77;69.65
76609;BME280;65928;53.936;27.540;2023-02-28T07:00:59;99990.47;;;-6.86;70.72
76609;BME280;65928;53.936;27.540;2023-02-28T07:03:25;99819.41;;;-7.86;70.40
76609;BME280;65928;53.936;27.540;2023-02-28T07:05:50;100265.78;;;-5.51;69.73
76609;BME280;65928;53.936;27.540;2023-02-28T07:08:16;100486.09;;;-4.32;70.00
76609;BME280;65928;53.936;27.540;2023-02-28T07:10:42;100468.94;;;-4.57;70.58
76609;BME280;65928;53.936;27.540;2023-02-28T07:13:08;99872.19;;;-7.17;69.48
76609;BME280;65928;53.936;27.540;2023-02-28T07:15:35;100316.56;;;-4.36;68.71
76609;BME280;65928;53.936;27.540;2023-02-28T07:18:01;99977.19;;;-6.46;68.92
76609;BME280;65928;53.936;27.540;2023-02-28T07:20:26;100374.03;;;-4.12;69.28
76609;BME280;65928;53.936;27.540;2023-02-28T07:22:52;100397.66;;;-3.67;68.79
76609;BME280;65928;53.936;27.540;2023-02-28T07:25:24;99875.44;;;-6.39;68.68
76609;BME280;65928;53.936;27.540;2023-02-28T07:27:50;99858.75;;;-6.54;67.96
76609;BME280;65928;53.936;27.540;2023-02-28T07:30:16;100000.09;;;-5.38;67.57
76609;BME280;65928;53.936;27.540;2023-02-28T07:32:42;99878.28;;;-6.01;67.79
76609;BME280;65928;53.936;27.540;2023-02-28T07:35:08;100303.53;;;-3.45;67.09
76609;BME280;65928;53.936;27.540;2023-02-28T07:37:33;99898.88;;;-5.68;66.85
76609;BME280;65928;53.936;27.540;2023-02-28T07:40:06;100370.38;;;-2.91;67.31
76609;BME280;65928;53.936;27.540;2023-02-28T07:42:34;99969.25;;;-5.68;68.34
76609;BME280;65928;53.936;27.540;2023-02-28T07:45:00;99849.66;;;-6.13;67.33
76609;BME280;65928;53.936;27.540;2023-02-28T07:47:26;100352.31;;;-2.89;68.00
76609;BME280;65928;53.936;27.540;2023-02-28T07:49:51;100299.78;;;-3.22;67.33
76609;BME280;65928;53.936;27.540;2023-02-28T07:52:17;100383.47;;;-2.47;67.12
76609;BME280;65928;53.936;27.540;2023-02-28T07:54:43;99883.06;;;-5.51;66.83
76609;BME280;65928;53.936;27.540;2023-02-28T07:57:08;100349.91;;;-2.04;65.99
76609;BME280;65928;53.936;27.540;2023-02-28T07:59:34;100369.59;;;-2.11;66.81
76609;BME280;65928;53.936;27.540;2023-02-28T08:01:59;100375.69;;;-2.49;66.70
76609;BME280;65928;53.936;27.540;2023-02-28T08:04:25;99902.25;;;-4.68;65.56
76609;BME280;65928;53.936;27.540;2023-02-28T08:06:50;100171.91;;;-3.01;65.31
76609;BME280;65928;53.936;27.540;2023-02-28T08:09:19;99877.81;;;-4.85;66.13
76609;BME280;65928;53.936;27.540;2023-02-28T08:11:44;100360.66;;;-1.83;65.79
76609;BME280;65928;53.936;27.540;2023-02-28T08:14:10;100043.06;;;-3.24;65.39
76609;BME280;65928;53.936;27.540;2023-02-28T08:16:36;99862.31;;;-4.08;64.36
76609;BME280;65928;53.936;27.540;2023-02-28T08:19:02;100276.00;;;-1.86;63.96
76609;BME280;65928;53.936;27.540;2023-02-28T08:21:27;99855.81;;;-4.31;64.19
76609;BME280;65928;53.936;27.540;2023-02-28T08:23:53;99873.47;;;-4.10;64.03
76609;BME280;65928;53.936;27.540;2023-02-28T08:26:18;99959.81;;;-3.53;63.28
76609;BME280;65928;53.936;27.540;2023-02-28T08:28:45;100218.09;;;-1.91;64.10
76609;BME280;65928;53.936;27.540;2023-02-28T08:31:15;99868.22;;;-4.15;63.43
76609;BME280;65928;53.936;27.540;2023-02-28T08:33:41;100266.28;;;-1.97;63.90
76609;BME280;65928;53.936;27.540;2023-02-28T08:36:08;100373.25;;;-1.09;63.09
76609;BME280;65928;53.936;27.540;2023-02-28T08:38:35;100418.91;;;-1.18;63.45
76609;BME280;65928;53.936;27.540;2023-02-28T08:41:03;99877.56;;;-3.78;62.91
76609;BME280;65928;53.936;27.540;2023-02-28T08:43:32;100361.63;;;-0.79;63.18
76609;BME280;65928;53.936;27.540;2023-02-28T08:45:58;99900.81;;;-3.32;62.82
76609;BME280;65928;53.936;27.540;2023-02-28T08:48:26;100260.19;;;-0.98;61.96
76609;BME280;65928;53.936;27.540;2023-02-28T08:51:00;100334.03;;;-0.76;61.42
76609;BME280;65928;53.936;27.540;2023-02-28T08:53:25;100340.81;;;-0.23;61.85
76609;BME280;65928;53.936;27.540;2023-02-28T08:56:05;99870.97;;;-3.63;61.03
76609;BME280;65928;53.936;27.540;2023-02-28T08:58:32;100325.78;;;-1.05;62.03
76609;BME280;65928;53.936;27.540;2023-02-28T09:00:57;99877.91;;;-3.11;60.66
76609;BME280;65928;53.936;27.540;2023-02-28T09:03:23;100419.69;;;-0.73;60.89
76609;BME280;65928;53.936;27.540;2023-02-28T09:05:57;100349.53;;;-0.79;60.14
76609;BME280;65928;53.936;27.540;2023-02-28T09:08:25;100307.69;;;-1.02;60.48
76609;BME280;65928;53.936;27.540;2023-02-28T09:10:50;100074.78;;;-2.42;60.00
76609;BME280;65928;53.936;27.540;2023-02-28T09:13:16;99867.56;;;-3.61;59.74
76609;BME280;65928;53.936;27.540;2023-02-28T09:15:42;100360.94;;;-0.68;60.59
76609;BME280;65928;53.936;27.540;2023-02-28T09:18:08;100398.16;;;-0.66;59.45
76609;BME280;65928;53.936;27.540;2023-02-28T09:20:33;100409.78;;;-0.43;59.77
76609;BME280;65928;53.936;27.540;2023-02-28T09:22:59;99945.59;;;-2.84;58.60
76609;BME280;65928;53.936;27.540;2023-02-28T09:25:24;100381.00;;;-0.58;58.89
76609;BME280;65928;53.936;27.540;2023-02-28T09:27:50;100104.84;;;-1.42;58.65
76609;BME280;65928;53.936;27.540;2023-02-28T09:30:16;100182.25;;;-1.07;59.10
76609;BME280;65928;53.936;27.540;2023-02-28T09:32:41;99862.72;;;-2.91;58.73
76609;BME280;65928;53.936;27.540;2023-02-28T09:35:07;100321.66;;;-0.32;58.79
76609;BME280;65928;53.936;27.540;2023-02-28T09:37:38;99825.75;;;-2.86;57.59
76609;BME280;65928;53.936;27.540;2023-02-28T09:40:04;100187.38;;;-0.42;57.24
76609;BME280;65928;53.936;27.540;2023-02-28T09:42:32;100216.19;;;-0.21;57.19
76609;BME280;65928;53.936;27.540;2023-02-28T09:45:00;99826.97;;;-2.62;57.77
76609;BME280;65928;53.936;27.540;2023-02-28T09:47:33;100389.22;;;0.37;57.67
76609;BME280;65928;53.936;27.540;2023-02-28T09:50:16;100264.22;;;0.17;57.80
76609;BME280;65928;53.936;27.540;2023-02-28T09:52:45;100197.69;;;-0.48;57.59
76609;BME280;65928;53.936;27.540;2023-02-28T09:55:28;99884.75;;;-1.99;56.96
76609;BME280;65928;53.936;27.540;2023-02-28T09:57:56;99810.25;;;-2.21;55.49
76609;BME280;65928;53.936;27.540;2023-02-28T10:00:32;100204.28;;;-0.03;56.82
76609;BME280;65928;53.936;27.540;2023-02-28T10:08:42;100287.16;;;0.57;54.54
76609;BME280;65928;53.936;27.540;2023-02-28T10:11:12;100362.69;;;0.69;54.57
76609;BME280;65928;53.936;27.540;2023-02-28T10:16:46;99852.22;;;-1.74;53.63
76609;BME280;65928;53.936;27.540;2023-02-28T10:19:23;99865.97;;;-1.83;53.59
76609;BME280;65928;53.936;27.540;2023-02-28T10:29:51;99887.81;;;-1.61;53.13
76609;BME280;65928;53.936;27.540;2023-02-28T10:32:20;100273.59;;;0.96;53.29
76609;BME280;65928;53.936;27.540;2023-02-28T10:37:39;100160.25;;;0.14;52.28
76609;BME280;65928;53.936;27.540;2023-02-28T10:40:06;99860.34;;;-1.43;51.70
76609;BME280;65928;53.936;27.540;2023-02-28T10:42:32;99738.19;;;-1.81;52.23
76609;BME280;65928;53.936;27.540;2023-02-28T10:47:34;100167.84;;;1.09;52.49
76609;BME280;65928;53.936;27.540;2023-02-28T10:50:00;100226.19;;;1.51;52.23
76609;BME280;65928;53.936;27.540;2023-02-28T10:52:38;99749.03;;;-1.26;52.06
76609;BME280;65928;53.936;27.540;2023-02-28T10:55:21;99799.44;;;-0.89;50.40
76609;BME280;65928;53.936;27.540;2023-02-28T10:57:47;100209.63;;;1.37;49.53
76609;BME280;65928;53.936;27.540;2023-02-28T11:02:47;100078.38;;;0.81;50.92
76609;BME280;65928;53.936;27.540;2023-02-28T11:05:32;100239.97;;;1.32;51.57
76609;BME280;65928;53.936;27.540;2023-02-28T11:10:31;100111.34;;;0.85;49.74
76609;BME280;65928;53.936;27.540;2023-02-28T11:13:00;100172.38;;;1.55;51.71
76609;BME280;65928;53.936;27.540;2023-02-28T11:15:33;100176.75;;;1.65;52.01
76609;BME280;65928;53.936;27.540;2023-02-28T11:20:50;100175.88;;;1.67;52.25
76609;BME280;65928;53.936;27.540;2023-02-28T11:23:17;99938.50;;;0.12;52.11
76609;BME280;65928;53.936;27.540;2023-02-28T11:25:55;100162.75;;;1.34;52.38
76609;BME280;65928;53.936;27.540;2023-02-28T11:28:33;100144.59;;;1.58;52.67
76609;BME280;65928;53.936;27.540;2023-02-28T11:33:29;99683.41;;;-1.21;52.67
76609;BME280;65928;53.936;27.540;2023-02-28T11:36:01;100102.91;;;1.43;52.34
76609;BME280;65928;53.936;27.540;2023-02-28T11:38:27;99642.66;;;-1.40;51.77
76609;BME280;65928;53.936;27.540;2023-02-28T11:51:49;100133.22;;;1.31;52.49
76609;BME280;65928;53.936;27.540;2023-02-28T11:54:46;99976.84;;;0.63;53.19
76609;BME280;65928;53.936;27.540;2023-02-28T12:05:34;100042.13;;;1.35;53.72
76609;BME280;65928;53.936;27.540;2023-02-28T12:08:20;99911.06;;;1.06;53.61
76609;BME280;65928;53.936;27.540;2023-02-28T12:16:35;100120.38;;;2.11;53.72
76609;BME280;65928;53.936;27.540;2023-02-28T12:22:12;99704.63;;;-0.11;52.95
76609;BME280;65928;53.936;27.540;2023-02-28T12:25:30;100090.81;;;2.27;52.84
76609;BME280;65928;53.936;27.540;2023-02-28T12:27:40;100138.63;;;2.42;52.58
76609;BME280;65928;53.936;27.540;2023-02-28T12:32:47;99615.34;;;-0.70;52.38
76609;BME280;65928;53.936;27.540;2023-02-28T12:35:17;100064.72;;;2.30;52.58
76609;BME280;65928;53.936;27.540;2023-02-28T12:40:43;100083.00;;;2.15;51.38
76609;BME280;65928;53.936;27.540;2023-02-28T12:43:10;99870.31;;;1.08;52.04
76609;BME280;65928;53.936;27.540;2023-02-28T12:45:50;99911.06;;;1.50;52.00
76609;BME280;65928;53.936;27.540;2023-02-28T12:48:26;99983.09;;;1.89;53.34
76609;BME280;65928;53.936;27.540;2023-02-28T12:50:53;99998.75;;;1.92;53.53
76609;BME280;65928;53.936;27.540;2023-02-28T12:53:31;100039.56;;;2.02;52.69
76609;BME280;65928;53.936;27.540;2023-02-28T12:56:17;100086.47;;;2.03;52.14
76609;BME280;65928;53.936;27.540;2023-02-28T12:58:48;100043.03;;;1.93;52.26
76609;BME280;65928;53.936;27.540;2023-02-28T13:09:37;100031.72;;;2.17;52.56
76609;BME280;65928;53.936;27.540;2023-02-28T13:12:13;100089.06;;;2.24;52.41
76609;BME280;65928;53.936;27.540;2023-02-28T13:14:39;100079.50;;;2.34;52.63
76609;BME280;65928;53.936;27.540;2023-02-28T13:19:45;100041.25;;;2.46;52.25
76609;BME280;65928;53.936;27.540;2023-02-28T13:24:52;99999.47;;;2.49;52.57
76609;BME280;65928;53.936;27.540;2023-02-28T13:29:43;99658.78;;;0.53;52.11
76609;BME280;65928;53.936;27.540;2023-02-28T13:32:29;99604.16;;;0.49;51.59
76609;BME280;65928;53.936;27.540;2023-02-28T13:39:56;100003.78;;;2.65;51.89
76609;BME280;65928;53.936;27.540;2023-02-28T13:47:38;100047.28;;;2.56;51.68
76609;BME280;65928;53.936;27.540;2023-02-28T13:55:51;99637.06;;;0.75;52.17
76609;BME280;65928;53.936;27.540;2023-02-28T14:01:16;99518.41;;;0.44;52.37
76609;BME280;65928;53.936;27.540;2023-02-28T14:06:39;99898.59;;;2.57;51.38
76609;BME280;65928;53.936;27.540;2023-02-28T14:11:40;99823.28;;;1.94;51.49
76609;BME280;65928;53.936;27.540;2023-02-28T14:14:08;99909.94;;;2.47;51.63
76609;BME280;65928;53.936;27.540;2023-02-28T14:16:41;99473.50;;;-0.06;51.37
76609;BME280;65928;53.936;27.540;2023-02-28T14:19:19;99482.09;;;0.13;51.64
76609;BME280;65928;53.936;27.540;2023-02-28T14:24:23;99925.44;;;2.78;52.04
76609;BME280;65928;53.936;27.540;2023-02-28T14:27:58;99936.00;;;2.58;51.23
76609;BME280;65928;53.936;27.540;2023-02-28T14:36:20;99980.34;;;2.49;52.63
76609;BME280;65928;53.936;27.540;2023-02-28T14:39:05;99492.56;;;-0.24;52.55
76609;BME280;65928;53.936;27.540;2023-02-28T14:41:37;99855.41;;;1.92;53.29
76609;BME280;65928;53.936;27.540;2023-02-28T14:44:25;99928.31;;;2.23;53.79
76609;BME280;65928;53.936;27.540;2023-02-28T14:46:59;99803.41;;;1.60;54.08
76609;BME280;65928;53.936;27.540;2023-02-28T14:49:35;99484.78;;;-0.64;54.38
76609;BME280;65928;53.936;27.540;2023-02-28T14:52:22;99911.84;;;2.03;53.72
76609;BME280;65928;53.936;27.540;2023-02-28T14:55:17;99937.88;;;2.17;54.48
76609;BME280;65928;53.936;27.540;2023-02-28T14:58:04;99477.84;;;-0.68;54.49
76609;BME280;65928;53.936;27.540;2023-02-28T15:00:39;100003.97;;;1.86;54.71
76609;BME280;65928;53.936;27.540;2023-02-28T15:03:24;99950.97;;;1.94;54.85
76609;BME280;65928;53.936;27.540;2023-02-28T15:05:56;99958.78;;;1.73;55.83
76609;BME280;65928;53.936;27.540;2023-02-28T15:08:22;99495.97;;;-0.88;55.14
76609;BME280;65928;53.936;27.540;2023-02-28T15:13:38;99898.94;;;1.34;56.01
76609;BME280;65928;53.936;27.540;2023-02-28T15:16:08;99638.84;;;-0.11;55.74
76609;BME280;65928;53.936;27.540;2023-02-28T15:18:48;99615.44;;;-0.26;56.54
76609;BME280;65928;53.936;27.540;2023-02-28T15:21:23;99677.81;;;0.24;56.82
76609;BME280;65928;53.936;27.540;2023-02-28T15:26:35;99483.84;;;-0.98;57.26
76609;BME280;65928;53.936;27.540;2023-02-28T15:29:10;99501.13;;;-0.97;57.35
76609;BME280;65928;53.936;27.540;2023-02-28T15:31:44;99958.81;;;1.40;57.14
76609;BME280;65928;53.936;27.540;2023-02-28T15:34:35;99959.69;;;1.46;57.93
76609;BME280;65928;53.936;27.540;2023-02-28T15:37:01;100026.44;;;1.19;58.33
76609;BME280;65928;53.936;27.540;2023-02-28T15:39:28;99875.47;;;0.91;59.75
76609;BME280;65928;53.936;27.540;2023-02-28T15:42:18;99584.97;;;-1.04;58.54